Time;durP1;ratioP1;P1;durP2;ratioP2;P2;SDS_P1;SDS_P2;PMS_P1;PMS_P2;Temp;Humidity;BMP_temperature;BMP_pressure;BME280_temperature;BME280_humidity;BME280_pressure;Samples;Min_cycle;Max_cycle;Signal;HPM_P1;HPM_P2
2023/08/03 00:00:28;;;;;;;5.10;2.70;;;;;;;19.92;100.00;100459.98;108653;1257;74163;-51
2023/08/03 00:02:55;;;;;;;3.30;3.10;;;;;;;19.92;100.00;100462.31;105818;1262;66836;-50
2023/08/03 00:05:23;;;;;;;3.10;2.90;;;;;;;19.92;100.00;100463.58;105213;1259;71157;-49
2023/08/03 00:07:51;;;;;;;2.70;2.50;;;;;;;19.91;100.00;100464.92;104621;1258;61623;-49
2023/08/03 00:10:19;;;;;;;2.50;2.40;;;;;;;19.91;100.00;100470.41;104337;1257;60456;-50
2023/08/03 00:12:47;;;;;;;3.70;2.30;;;;;;;19.88;100.00;100472.48;107726;1259;73005;-49
2023/08/03 00:15:14;;;;;;;5.20;1.90;;;;;;;19.86;100.00;100469.35;106480;1257;66117;-51
2023/08/03 00:17:42;;;;;;;3.10;2.20;;;;;;;19.85;100.00;100474.34;104492;1257;73033;-49
2023/08/03 00:20:10;;;;;;;2.20;1.80;;;;;;;19.83;100.00;100479.59;107234;1257;61638;-48
2023/08/03 00:22:37;;;;;;;2.30;2.20;;;;;;;19.80;100.00;100480.77;104465;1257;60113;-49
2023/08/03 00:25:05;;;;;;;2.60;2.40;;;;;;;19.77;100.00;100485.86;104573;1258;71964;-50
2023/08/03 00:27:32;;;;;;;5.30;2.40;;;;;;;19.75;100.00;100489.29;104403;1258;67772;-50
2023/08/03 00:30:00;;;;;;;1.60;1.40;;;;;;;19.75;100.00;100491.90;105814;1257;72673;-49
2023/08/03 00:32:27;;;;;;;2.10;1.50;;;;;;;19.75;100.00;100497.00;104663;1261;62153;-49
2023/08/03 00:34:55;;;;;;;2.10;2.00;;;;;;;19.74;100.00;100501.95;104929;1262;59649;-49
2023/08/03 00:37:23;;;;;;;1.60;1.50;;;;;;;19.71;100.00;100501.63;104367;1257;71814;-49
2023/08/03 00:39:50;;;;;;;2.30;1.90;;;;;;;19.71;100.00;100503.49;104604;1259;65556;-47
2023/08/03 00:42:17;;;;;;;4.60;2.50;;;;;;;19.70;100.00;100515.19;104733;1260;71192;-49
2023/08/03 00:44:45;;;;;;;2.80;2.50;;;;;;;19.71;100.00;100523.48;104532;1258;62203;-51
2023/08/03 00:47:12;;;;;;;1.70;1.60;;;;;;;19.71;100.00;100525.83;104583;1264;59169;-49
2023/08/03 00:49:40;;;;;;;1.40;1.30;;;;;;;19.70;100.00;100525.74;104560;1264;73057;-48
2023/08/03 00:52:08;;;;;;;3.60;2.00;;;;;;;19.68;100.00;100530.66;105281;1259;67667;-49
2023/08/03 00:54:36;;;;;;;1.90;1.40;;;;;;;19.64;100.00;100533.45;104614;1262;72695;-48
2023/08/03 00:57:05;;;;;;;5.00;1.40;;;;;;;19.60;100.00;100537.02;105062;1257;60419;-49
2023/08/03 00:59:32;;;;;;;2.00;1.40;;;;;;;19.60;100.00;100533.05;104820;1259;59824;-48
2023/08/03 01:02:00;;;;;;;1.50;1.40;;;;;;;19.59;100.00;100531.08;104759;1257;71752;-48
2023/08/03 01:04:28;;;;;;;1.50;1.40;;;;;;;19.58;100.00;100538.80;104972;1263;66293;-49
2023/08/03 01:06:56;;;;;;;3.50;1.60;;;;;;;19.57;100.00;100540.87;105563;1257;71840;-49
2023/08/03 01:09:23;;;;;;;1.50;1.40;;;;;;;19.55;100.00;100545.80;105649;1261;60397;-49
2023/08/03 01:11:50;;;;;;;4.20;1.30;;;;;;;19.55;100.00;100554.52;104805;1259;59804;-50
2023/08/03 01:14:17;;;;;;;2.50;1.40;;;;;;;19.55;100.00;100559.39;104710;1257;74710;-50
2023/08/03 01:16:45;;;;;;;1.40;1.30;;;;;;;19.57;100.00;100565.48;104627;1264;66376;-49
2023/08/03 01:19:13;;;;;;;1.70;1.00;;;;;;;19.58;100.00;100567.61;104655;1260;71381;-50
2023/08/03 01:21:41;;;;;;;1.80;1.10;;;;;;;19.58;100.00;100570.67;105074;1263;61632;-50
2023/08/03 01:24:10;;;;;;;1.40;1.10;;;;;;;19.59;100.00;100580.58;105171;1258;59963;-51
2023/08/03 01:26:37;;;;;;;1.50;1.10;;;;;;;19.61;100.00;100585.03;104775;1260;73044;-49
2023/08/03 01:29:05;;;;;;;1.30;0.90;;;;;;;19.62;100.00;100593.34;104626;1264;66295;-49
2023/08/03 01:31:33;;;;;;;1.50;0.90;;;;;;;19.60;100.00;100601.27;104531;1261;73183;-47
2023/08/03 01:34:01;;;;;;;1.90;0.90;;;;;;;19.57;100.00;100602.20;104423;1257;60461;-50
2023/08/03 01:36:28;;;;;;;0.90;0.90;;;;;;;19.55;100.00;100600.56;104311;1257;62254;-50
2023/08/03 01:39:08;;;;;;;1.10;1.00;;;;;;;19.55;100.00;100601.89;104426;1263;73649;-50
2023/08/03 01:41:37;;;;;;;1.30;1.00;;;;;;;19.52;100.00;100620.60;104881;1257;65202;-50
2023/08/03 01:44:26;;;;;;;2.90;0.90;;;;;;;19.51;100.00;100627.27;104604;1264;73761;-51
2023/08/03 01:46:54;;;;;;;1.10;0.90;;;;;;;19.50;100.00;100651.74;107377;1259;60425;-48
2023/08/03 01:49:24;;;;;;;2.20;0.90;;;;;;;19.50;100.00;100646.45;104687;1259;60735;-49
2023/08/03 01:51:51;;;;;;;2.80;1.00;;;;;;;19.51;100.00;100654.73;104629;1262;73073;-49
2023/08/03 01:54:19;;;;;;;1.00;0.90;;;;;;;19.53;100.00;100655.54;104474;1263;66652;-49
2023/08/03 01:56:46;;;;;;;1.90;0.90;;;;;;;19.54;100.00;100662.16;104539;1260;71498;-49
2023/08/03 01:59:13;;;;;;;2.70;1.00;;;;;;;19.54;100.00;100668.56;104695;1257;62742;-47
2023/08/03 02:01:41;;;;;;;2.20;1.00;;;;;;;19.53;100.00;100675.89;104457;1259;59991;-46
2023/08/03 02:04:09;;;;;;;1.80;0.90;;;;;;;19.52;100.00;100676.88;104784;1257;71772;-49
2023/08/03 02:06:38;;;;;;;1.70;0.80;;;;;;;19.49;100.00;100681.30;104580;1258;67758;-48
2023/08/03 02:09:06;;;;;;;0.70;0.70;;;;;;;19.48;100.00;100684.68;104448;1263;71263;-46
2023/08/03 02:11:33;;;;;;;3.80;0.90;;;;;;;19.47;100.00;100685.61;104655;1257;60681;-49
2023/08/03 02:14:01;;;;;;;0.90;0.60;;;;;;;19.46;100.00;100693.31;104542;1263;60697;-48
2023/08/03 02:16:28;;;;;;;1.40;0.70;;;;;;;19.42;100.00;100698.15;104529;1260;73788;-48
2023/08/03 02:18:55;;;;;;;1.00;0.70;;;;;;;19.39;100.00;100702.02;104488;1258;65932;-47
2023/08/03 02:21:23;;;;;;;1.40;0.70;;;;;;;19.39;100.00;100704.58;104442;1263;72644;-49
2023/08/03 02:23:50;;;;;;;0.70;0.70;;;;;;;19.39;100.00;100714.02;104518;1262;60515;-49
2023/08/03 02:26:17;;;;;;;0.60;0.60;;;;;;;19.37;100.00;100725.95;104763;1260;60708;-49
2023/08/03 02:28:45;;;;;;;0.60;0.60;;;;;;;19.35;100.00;100728.65;104555;1262;73775;-49
2023/08/03 02:31:12;;;;;;;0.80;0.70;;;;;;;19.30;100.00;100732.27;104670;1258;67695;-49
2023/08/03 02:33:43;;;;;;;0.50;0.50;;;;;;;19.25;100.00;100740.41;108626;1259;72664;-50
2023/08/03 02:36:11;;;;;;;2.20;0.60;;;;;;;19.24;100.00;100743.81;108706;1258;61814;-49
2023/08/03 02:38:39;;;;;;;0.50;0.50;;;;;;;19.21;100.00;100747.45;108667;1259;60136;-49
2023/08/03 02:41:07;;;;;;;2.30;0.60;;;;;;;19.20;100.00;100749.39;108650;1257;75649;-49
2023/08/03 02:43:34;;;;;;;1.90;0.50;;;;;;;19.18;100.00;100751.33;108652;1258;66344;-49
2023/08/03 02:46:02;;;;;;;0.60;0.60;;;;;;;19.16;100.00;100757.29;108700;1258;71353;-50
2023/08/03 02:48:30;;;;;;;1.00;0.60;;;;;;;19.13;100.00;100763.70;108567;1257;61400;-50
2023/08/03 02:50:57;;;;;;;1.00;0.60;;;;;;;19.11;100.00;100768.90;108758;1258;60992;-49
2023/08/03 02:53:28;;;;;;;0.60;0.60;;;;;;;19.11;100.00;100768.37;108663;1258;72139;-50
2023/08/03 02:55:56;;;;;;;1.30;0.60;;;;;;;19.11;100.00;100769.27;108671;1257;66371;-50
2023/08/03 02:58:23;;;;;;;1.00;0.50;;;;;;;19.11;100.00;100776.54;108598;1259;70686;-50
2023/08/03 03:00:51;;;;;;;2.70;0.60;;;;;;;19.13;100.00;100785.35;108566;1258;60547;-50
2023/08/03 03:03:19;;;;;;;0.60;0.60;;;;;;;19.15;100.00;100796.08;108679;1257;59031;-49
2023/08/03 03:05:47;;;;;;;0.70;0.70;;;;;;;19.17;100.00;100804.52;108627;1259;73791;-50
2023/08/03 03:08:15;;;;;;;5.90;0.70;;;;;;;19.18;100.00;100810.08;105750;1261;67768;-50
2023/08/03 03:10:43;;;;;;;1.10;0.60;;;;;;;19.18;100.00;100817.15;104437;1257;72423;-49
2023/08/03 03:13:10;;;;;;;0.70;0.70;;;;;;;19.17;100.00;100817.08;105869;1253;60755;-49
2023/08/03 03:15:39;;;;;;;0.90;0.80;;;;;;;19.17;100.00;100828.86;104719;1253;60482;-49
2023/08/03 03:18:07;;;;;;;0.80;0.60;;;;;;;19.19;100.00;100833.13;104965;1253;74204;-49
2023/08/03 03:20:35;;;;;;;0.60;0.60;;;;;;;19.21;100.00;100837.52;105160;1254;67617;-48
2023/08/03 03:23:03;;;;;;;2.70;0.70;;;;;;;19.23;100.00;100844.64;104849;1253;72645;-50
2023/08/03 03:25:30;;;;;;;2.50;0.80;;;;;;;19.23;100.00;100850.32;104935;1258;60572;-49
2023/08/03 03:28:04;;;;;;;0.70;0.70;;;;;;;19.23;100.00;100853.60;104986;1253;60706;-50
2023/08/03 03:30:34;;;;;;;0.90;0.60;;;;;;;19.23;100.00;100873.96;104788;1253;72566;-49
2023/08/03 03:33:01;;;;;;;0.50;0.50;;;;;;;19.23;100.00;100877.43;104764;1258;66772;-49
2023/08/03 03:35:29;;;;;;;2.80;0.50;;;;;;;19.20;100.00;100877.26;104887;1254;73923;-48
2023/08/03 03:37:57;;;;;;;3.40;0.80;;;;;;;19.20;100.00;100882.89;104982;1254;60512;-50
2023/08/03 03:40:24;;;;;;;0.60;0.60;;;;;;;19.20;100.00;100884.89;104779;1254;60519;-48
2023/08/03 03:42:52;;;;;;;1.30;0.50;;;;;;;19.22;100.00;100894.81;104800;1259;74299;-49
2023/08/03 03:45:20;;;;;;;0.70;0.60;;;;;;;19.22;100.00;100903.70;105210;1257;66325;-49
2023/08/03 03:47:48;;;;;;;0.90;0.60;;;;;;;19.21;100.00;100915.08;104718;1256;72728;-50
2023/08/03 03:50:15;;;;;;;1.90;0.60;;;;;;;19.20;100.00;100917.66;105885;1254;60566;-48
2023/08/03 03:52:43;;;;;;;1.60;0.80;;;;;;;19.21;100.00;100923.95;104755;1253;60563;-48
2023/08/03 03:55:13;;;;;;;0.70;0.70;;;;;;;19.22;100.00;100935.91;104744;1255;72687;-47
2023/08/03 03:57:42;;;;;;;2.10;0.90;;;;;;;19.23;100.00;100938.38;104945;1254;66634;-48
2023/08/03 04:00:10;;;;;;;2.60;0.90;;;;;;;19.26;100.00;100952.20;104885;1253;72460;-48
2023/08/03 04:02:43;;;;;;;2.40;0.70;;;;;;;19.28;100.00;100969.19;104835;1258;62170;-48
2023/08/03 04:05:16;;;;;;;2.70;0.70;;;;;;;19.28;100.00;100969.75;105538;1257;60989;-47
2023/08/03 04:07:43;;;;;;;0.60;0.60;;;;;;;19.27;100.00;100965.58;104830;1254;72538;-48
2023/08/03 04:10:11;;;;;;;1.20;0.70;;;;;;;19.27;100.00;100971.60;105088;1253;67974;-48
2023/08/03 04:12:38;;;;;;;1.40;0.60;;;;;;;19.25;100.00;100975.54;104906;1256;70394;-49
2023/08/03 04:15:06;;;;;;;1.70;0.70;;;;;;;19.23;100.00;100975.48;104665;1259;62211;-48
2023/08/03 04:17:34;;;;;;;1.30;0.70;;;;;;;19.23;100.00;100977.66;104816;1257;60298;-49
2023/08/03 04:20:01;;;;;;;1.70;0.70;;;;;;;19.23;100.00;100986.20;104784;1257;72577;-48
2023/08/03 04:22:29;;;;;;;0.80;0.70;;;;;;;19.25;100.00;100992.30;105006;1256;68142;-48
2023/08/03 04:24:57;;;;;;;2.50;0.70;;;;;;;19.27;100.00;100998.92;104762;1257;72426;-48
2023/08/03 04:27:25;;;;;;;2.10;0.60;;;;;;;19.29;100.00;101008.60;104762;1253;61717;-48
2023/08/03 04:29:53;;;;;;;0.70;0.70;;;;;;;19.31;100.00;101022.84;104616;1253;60506;-48
2023/08/03 04:32:20;;;;;;;3.00;0.80;;;;;;;19.34;100.00;101033.39;104829;1254;74413;-48
2023/08/03 04:34:48;;;;;;;1.00;0.70;;;;;;;19.37;100.00;101038.33;104782;1260;66625;-49
2023/08/03 04:37:15;;;;;;;0.80;0.70;;;;;;;19.37;100.00;101048.31;104984;1253;71833;-48
2023/08/03 04:39:42;;;;;;;1.30;0.70;;;;;;;19.38;100.00;101056.08;104899;1254;62258;-50
2023/08/03 04:42:11;;;;;;;1.40;0.60;;;;;;;19.38;100.00;101065.75;105137;1254;60570;-48
2023/08/03 04:44:39;;;;;;;0.70;0.60;;;;;;;19.40;100.00;101078.55;104915;1253;72581;-49
2023/08/03 04:47:06;;;;;;;1.00;0.70;;;;;;;19.42;100.00;101091.63;104686;1258;66288;-50
2023/08/03 04:49:33;;;;;;;0.60;0.60;;;;;;;19.46;100.00;101101.83;104555;1254;71916;-49
2023/08/03 04:52:04;;;;;;;0.80;0.80;;;;;;;19.49;100.00;101123.11;104697;1256;60704;-49
2023/08/03 04:54:32;;;;;;;0.60;0.60;;;;;;;19.52;100.00;101130.35;105281;1254;60613;-46
2023/08/03 04:56:59;;;;;;;0.70;0.60;;;;;;;19.55;100.00;101147.09;104910;1254;72837;-48
2023/08/03 04:59:28;;;;;;;0.70;0.70;;;;;;;19.56;100.00;101164.88;105168;1255;66635;-48
2023/08/03 05:01:55;;;;;;;2.00;0.60;;;;;;;19.60;100.00;101179.93;104887;1257;71664;-48
2023/08/03 05:04:23;;;;;;;0.70;0.70;;;;;;;19.62;100.00;101201.33;104760;1254;61268;-49
2023/08/03 05:06:52;;;;;;;1.20;0.70;;;;;;;19.58;100.00;101214.09;104282;1256;60520;-49
2023/08/03 05:09:20;;;;;;;0.90;0.70;;;;;;;19.57;100.00;101226.20;105609;1255;73863;-48
2023/08/03 05:11:47;;;;;;;0.90;0.80;;;;;;;19.58;100.00;101232.30;104959;1256;66290;-48
2023/08/03 05:14:14;;;;;;;0.60;0.60;;;;;;;19.58;100.00;101236.48;104836;1253;71445;-50
2023/08/03 05:16:42;;;;;;;1.60;0.60;;;;;;;19.58;100.00;101245.81;104864;1254;60531;-48
2023/08/03 05:19:09;;;;;;;0.60;0.60;;;;;;;19.60;100.00;101253.84;104800;1254;60654;-49
2023/08/03 05:21:36;;;;;;;0.60;0.60;;;;;;;19.64;100.00;101266.74;105039;1253;72529;-47
2023/08/03 05:24:04;;;;;;;3.40;0.70;;;;;;;19.68;100.00;101281.77;105057;1258;66658;-48
2023/08/03 05:26:32;;;;;;;3.70;0.70;;;;;;;19.73;100.00;101298.08;104999;1259;72418;-48
2023/08/03 05:29:00;;;;;;;3.00;1.00;;;;;;;19.76;100.00;101314.61;108938;1254;61944;-49
2023/08/03 05:31:29;;;;;;;1.00;0.80;;;;;;;19.79;100.00;101325.34;109130;1255;58752;-48
2023/08/03 05:33:56;;;;;;;1.40;0.70;;;;;;;19.82;100.00;101340.67;109038;1254;73870;-49
2023/08/03 05:36:23;;;;;;;2.90;0.90;;;;;;;19.84;100.00;101355.08;109189;1253;67049;-49
2023/08/03 05:38:53;;;;;;;3.70;0.60;;;;;;;19.87;100.00;101362.94;109047;1253;73286;-49
2023/08/03 05:41:21;;;;;;;0.80;0.60;;;;;;;19.90;100.00;101376.74;109083;1254;60386;-49
2023/08/03 05:43:49;;;;;;;2.30;0.60;;;;;;;19.95;100.00;101384.86;109161;1253;60085;-49
2023/08/03 05:46:16;;;;;;;0.60;0.60;;;;;;;19.99;100.00;101398.22;109106;1255;72583;-49
2023/08/03 05:48:47;;;;;;;0.70;0.70;;;;;;;20.04;100.00;101418.89;108886;1252;68145;-49
2023/08/03 05:51:25;;;;;;;0.80;0.70;;;;;;;20.11;100.00;101435.64;108993;1253;73082;-49
2023/08/03 05:53:53;;;;;;;0.90;0.70;;;;;;;20.16;100.00;101463.55;108815;1254;62275;-50
2023/08/03 05:56:21;;;;;;;0.70;0.60;;;;;;;20.21;100.00;101468.01;109016;1252;58711;-49
2023/08/03 05:58:49;;;;;;;0.90;0.80;;;;;;;20.23;100.00;101479.15;109002;1253;73777;-50
2023/08/03 06:01:22;;;;;;;2.40;0.80;;;;;;;20.25;100.00;101490.90;109060;1253;67916;-49
2023/08/03 06:03:51;;;;;;;0.70;0.70;;;;;;;20.29;100.00;101512.14;109145;1253;71716;-49
2023/08/03 06:06:19;;;;;;;0.70;0.60;;;;;;;20.34;100.00;101519.30;109011;1252;60477;-50
2023/08/03 06:08:50;;;;;;;1.50;0.80;;;;;;;20.42;100.00;101530.91;109159;1252;58765;-49
2023/08/03 06:11:20;;;;;;;1.60;0.70;;;;;;;20.50;100.00;101556.67;108299;1258;73812;-50
2023/08/03 06:13:53;;;;;;;0.90;0.70;;;;;;;20.57;100.00;101584.34;106120;1253;68002;-49
2023/08/03 06:16:21;;;;;;;2.20;0.70;;;;;;;20.63;100.00;101594.37;105141;1254;72481;-50
2023/08/03 06:18:52;;;;;;;0.70;0.70;;;;;;;20.66;100.00;101614.59;104857;1258;60533;-47
2023/08/03 06:21:20;;;;;;;0.70;0.70;;;;;;;20.69;100.00;101635.20;104919;1254;60604;-49
2023/08/03 06:23:48;;;;;;;4.90;0.60;;;;;;;20.70;100.00;101642.94;105120;1257;73858;-49
2023/08/03 06:26:17;;;;;;;1.50;0.70;;;;;;;20.72;100.00;101655.44;104812;1251;66501;-48
2023/08/03 06:28:45;;;;;;;2.10;0.70;;;;;;;20.74;100.00;101665.73;104740;1253;72661;-48
2023/08/03 06:31:13;;;;;;;2.90;0.90;;;;;;;20.78;100.00;101677.14;106553;1253;60312;-49
2023/08/03 06:33:42;;;;;;;2.50;0.80;;;;;;;20.82;100.00;101693.75;104357;1253;60419;-49
2023/08/03 06:36:11;;;;;;;0.80;0.80;;;;;;;20.83;100.00;101707.49;109011;1253;73880;-50
2023/08/03 06:38:39;;;;;;;1.10;0.70;;;;;;;20.91;100.00;101723.27;105410;1259;66287;-48
2023/08/03 06:41:06;;;;;;;0.60;0.60;;;;;;;20.98;100.00;101742.75;105118;1253;71248;-49
2023/08/03 06:43:33;;;;;;;0.80;0.80;;;;;;;21.02;100.00;101758.00;105043;1257;62595;-51
2023/08/03 06:46:00;;;;;;;0.80;0.80;;;;;;;21.05;100.00;101773.53;105066;1257;60563;-48
2023/08/03 06:48:28;;;;;;;0.80;0.70;;;;;;;21.10;100.00;101790.70;104659;1253;71585;-49
2023/08/03 06:50:56;;;;;;;2.60;0.90;;;;;;;21.18;100.00;101809.45;104836;1253;67880;-50
2023/08/03 06:53:23;;;;;;;3.40;0.90;;;;;;;21.25;100.00;101830.78;104690;1259;73138;-49
2023/08/03 06:55:50;;;;;;;2.60;0.90;;;;;;;21.29;100.00;101847.88;104920;1258;61696;-50
2023/08/03 06:58:18;;;;;;;0.90;0.70;;;;;;;21.29;100.00;101865.41;104638;1253;60126;-49
2023/08/03 07:00:45;;;;;;;2.20;0.70;;;;;;;21.31;100.00;101884.42;104859;1253;74236;-50
2023/08/03 07:03:13;;;;;;;2.00;0.60;;;;;;;21.32;100.00;101897.34;104988;1260;66749;-50
2023/08/03 07:05:40;;;;;;;1.20;0.70;;;;;;;21.38;100.00;101911.77;105579;1258;72643;-50
2023/08/03 07:08:08;;;;;;;1.10;0.80;;;;;;;21.47;100.00;101930.95;105008;1257;60698;-50
2023/08/03 07:10:36;;;;;;;1.90;0.80;;;;;;;21.57;100.00;101955.02;104867;1253;60617;-49
2023/08/03 07:13:03;;;;;;;1.00;0.80;;;;;;;21.66;100.00;101977.38;105013;1258;73843;-49
2023/08/03 07:15:33;;;;;;;0.80;0.80;;;;;;;21.70;100.00;102002.67;105541;1254;65997;-50
2023/08/03 07:18:05;;;;;;;1.20;0.80;;;;;;;21.71;100.00;102019.59;105454;1254;72680;-50
2023/08/03 07:20:36;;;;;;;0.80;0.80;;;;;;;21.73;100.00;102041.77;104840;1254;61219;-50
2023/08/03 07:23:05;;;;;;;1.20;0.70;;;;;;;21.76;100.00;102060.63;104963;1253;60461;-49
2023/08/03 07:25:33;;;;;;;0.70;0.60;;;;;;;21.82;100.00;102071.77;104647;1257;73893;-49
2023/08/03 07:28:00;;;;;;;1.00;0.70;;;;;;;21.93;100.00;102098.17;104999;1258;65277;-50
2023/08/03 07:30:28;;;;;;;1.00;0.90;;;;;;;22.03;100.00;102123.79;104683;1253;71677;-48
2023/08/03 07:32:59;;;;;;;1.50;0.80;;;;;;;22.10;100.00;102150.77;105086;1253;60578;-50
2023/08/03 07:35:26;;;;;;;0.80;0.70;;;;;;;22.14;100.00;102164.44;105196;1255;62554;-49
2023/08/03 07:37:54;;;;;;;0.90;0.70;;;;;;;22.17;100.00;102182.35;104826;1256;73901;-49
2023/08/03 07:40:21;;;;;;;1.20;0.70;;;;;;;22.21;100.00;102207.16;105019;1258;66615;-50
2023/08/03 07:42:48;;;;;;;0.80;0.80;;;;;;;22.28;100.00;102219.77;104726;1253;72441;-49
2023/08/03 07:45:16;;;;;;;1.70;0.80;;;;;;;22.36;100.00;102234.67;104782;1258;60458;-50
2023/08/03 07:48:03;;;;;;;0.70;0.70;;;;;;;22.46;100.00;102300.27;104814;1258;60411;-50
2023/08/03 07:50:31;;;;;;;0.80;0.80;;;;;;;22.56;100.00;102298.42;104819;1259;77603;-50
2023/08/03 07:52:58;;;;;;;1.60;0.70;;;;;;;22.66;100.00;102323.85;104842;1256;68505;-50
2023/08/03 07:55:25;;;;;;;1.60;0.80;;;;;;;22.73;100.00;102351.61;104660;1258;72630;-50
2023/08/03 07:57:53;;;;;;;0.80;0.70;;;;;;;22.82;100.00;102378.92;104840;1254;60554;-50
2023/08/03 08:00:20;;;;;;;0.70;0.70;;;;;;;22.86;100.00;102404.33;104802;1253;60461;-50
2023/08/03 08:02:48;;;;;;;1.90;0.70;;;;;;;22.92;100.00;102428.48;105154;1253;72563;-50
2023/08/03 08:05:16;;;;;;;1.80;0.90;;;;;;;23.02;100.00;102450.80;104428;1256;68369;-49
2023/08/03 08:07:43;;;;;;;1.40;0.80;;;;;;;23.13;100.00;102487.71;104761;1258;76470;-50
2023/08/03 08:10:11;;;;;;;0.90;0.70;;;;;;;23.25;100.00;102515.41;105102;1259;60646;-50
2023/08/03 08:12:38;;;;;;;2.40;0.60;;;;;;;23.36;100.00;102547.96;105019;1259;60487;-50
2023/08/03 08:15:06;;;;;;;0.80;0.70;;;;;;;23.42;100.00;102574.52;104997;1256;73768;-49
2023/08/03 08:17:33;;;;;;;0.70;0.60;;;;;;;23.41;100.00;102595.81;104970;1257;67283;-50
2023/08/03 08:20:01;;;;;;;0.80;0.70;;;;;;;23.37;100.00;102610.17;104508;1259;72624;-50
2023/08/03 08:22:28;;;;;;;0.70;0.70;;;;;;;23.26;100.00;102615.01;104706;1253;60475;-49
2023/08/03 08:24:56;;;;;;;2.30;0.70;;;;;;;23.10;100.00;102605.11;104958;1256;60623;-50
2023/08/03 08:27:24;;;;;;;1.90;0.70;;;;;;;22.99;100.00;102606.85;105551;1253;73810;-50
2023/08/03 08:29:52;;;;;;;2.00;0.60;;;;;;;22.95;100.00;102599.90;105515;1253;67642;-49
2023/08/03 08:32:19;;;;;;;2.00;0.70;;;;;;;23.00;100.00;102608.21;105029;1254;72616;-51
2023/08/03 08:34:46;;;;;;;2.20;0.60;;;;;;;23.10;100.00;102623.04;104860;1259;63476;-50
2023/08/03 08:37:14;;;;;;;0.70;0.60;;;;;;;23.22;100.00;102639.23;105020;1256;60885;-49
2023/08/03 08:39:41;;;;;;;0.50;0.50;;;;;;;23.34;100.00;102659.27;104914;1257;75500;-49
2023/08/03 08:42:12;;;;;;;0.50;0.50;;;;;;;23.48;100.00;102683.78;104807;1256;66889;-48
2023/08/03 08:44:40;;;;;;;0.40;0.40;;;;;;;23.60;100.00;102722.17;109156;1253;72597;-52
2023/08/03 08:47:07;;;;;;;1.90;0.50;;;;;;;23.72;100.00;102741.81;109047;1256;60041;-51
2023/08/03 08:49:35;;;;;;;0.50;0.50;;;;;;;23.84;100.00;102777.08;109022;1253;59037;-52
2023/08/03 08:52:05;;;;;;;0.50;0.50;;;;;;;23.92;100.00;102803.77;108958;1253;73841;-52
2023/08/03 08:54:33;;;;;;;0.50;0.40;;;;;;;23.99;100.00;102824.84;109020;1253;65686;-51
2023/08/03 08:57:04;;;;;;;0.60;0.60;;;;;;;24.02;100.00;102846.49;109068;1253;72921;-51
2023/08/03 08:59:59;;;;;;;0.40;0.40;;;;;;;24.03;100.00;102871.55;109061;1255;61140;-51
2023/08/03 09:02:26;;;;;;;0.40;0.40;;;;;;;24.03;100.00;102914.69;109002;1253;60329;-50
2023/08/03 09:04:54;;;;;;;0.40;0.40;;;;;;;24.03;100.00;102877.98;109229;1253;73795;-51
2023/08/03 09:07:22;;;;;;;0.50;0.50;;;;;;;24.08;100.00;102883.41;109126;1253;65525;-51
2023/08/03 09:09:49;;;;;;;0.40;0.40;;;;;;;24.11;100.00;102888.16;109001;1253;71588;-51
2023/08/03 09:12:24;;;;;;;0.40;0.40;;;;;;;24.17;100.00;102903.66;109064;1253;60007;-50
2023/08/03 09:14:52;;;;;;;1.80;0.50;;;;;;;24.25;100.00;102943.38;108599;1257;59541;-51
2023/08/03 09:17:19;;;;;;;0.40;0.40;;;;;;;24.35;100.00;102942.48;104995;1253;72638;-51
2023/08/03 09:19:47;;;;;;;0.50;0.50;;;;;;;24.43;100.00;102966.77;105703;1253;67310;-49
2023/08/03 09:22:20;;;;;;;3.40;0.50;;;;;;;24.47;100.00;102989.71;104986;1258;72640;-50
2023/08/03 09:25:06;;;;;;;0.40;0.40;;;;;;;24.45;100.00;102993.88;105372;1254;60522;-51
2023/08/03 09:27:35;;;;;;;0.40;0.40;;;;;;;24.40;100.00;103017.65;104951;1253;60331;-51
2023/08/03 09:30:06;;;;;;;0.40;0.40;;;;;;;24.35;100.00;102994.20;104974;1254;72852;-51
2023/08/03 09:32:37;;;;;;;0.40;0.40;;;;;;;24.39;100.00;102989.24;105125;1253;67794;-50
2023/08/03 09:35:17;;;;;;;0.40;0.30;;;;;;;24.45;100.00;103016.42;104568;1261;71411;-49
2023/08/03 09:37:44;;;;;;;0.40;0.40;;;;;;;24.50;100.00;102998.16;104859;1256;60550;-50
2023/08/03 09:40:13;;;;;;;0.50;0.50;;;;;;;24.57;100.00;103005.29;104913;1253;60558;-50
2023/08/03 09:42:41;;;;;;;0.40;0.40;;;;;;;24.64;100.00;103013.35;106343;1256;74820;-51
2023/08/03 09:45:09;;;;;;;0.30;0.30;;;;;;;24.71;100.00;103019.56;104852;1258;67175;-50
2023/08/03 09:47:40;;;;;;;0.30;0.30;;;;;;;24.78;100.00;103033.46;105219;1256;71831;-51
2023/08/03 09:50:08;;;;;;;0.40;0.30;;;;;;;24.84;100.00;103033.71;104929;1253;60517;-49
2023/08/03 09:52:42;;;;;;;0.50;0.50;;;;;;;24.88;100.00;103046.85;105025;1255;60647;-50
2023/08/03 09:55:18;;;;;;;0.50;0.50;;;;;;;24.90;100.00;103067.90;105085;1253;72721;-50
2023/08/03 09:57:52;;;;;;;;;;;;;;;24.92;100.00;103075.75;104859;1259;67090;-50
2023/08/03 10:00:19;;;;;;;0.30;0.30;;;;;;;24.91;100.00;103073.55;104602;1257;70858;-50
2023/08/03 10:03:00;;;;;;;1.00;0.40;;;;;;;24.87;100.00;103055.56;104881;1260;60535;-49
2023/08/03 10:05:28;;;;;;;0.30;0.30;;;;;;;24.85;100.00;103074.77;105202;1258;60542;-50
2023/08/03 10:07:59;;;;;;;0.40;0.30;;;;;;;24.80;100.00;103040.54;104721;1253;72694;-50
2023/08/03 10:10:27;;;;;;;0.40;0.40;;;;;;;24.74;100.00;103035.34;104917;1256;65640;-50
2023/08/03 10:12:57;;;;;;;0.40;0.40;;;;;;;24.72;100.00;103016.38;104689;1258;72460;-50
2023/08/03 10:18:06;;;;;;;0.80;0.40;;;;;;;24.74;100.00;102659.88;101630;1297;600619;-51
2023/08/03 10:20:34;;;;;;;0.50;0.50;;;;;;;24.73;100.00;103059.70;104042;1269;59355;-51
2023/08/03 10:23:28;;;;;;;0.50;0.40;;;;;;;24.80;100.00;103019.59;103775;1269;60567;-51
2023/08/03 10:25:56;;;;;;;0.40;0.40;;;;;;;24.93;100.00;103062.79;104611;1265;72755;-50
2023/08/03 10:28:40;;;;;;;1.00;0.40;;;;;;;25.03;100.00;103015.90;104827;1260;66828;-50
2023/08/03 10:31:14;;;;;;;0.50;0.30;;;;;;;25.13;100.00;103050.08;104417;1258;246230;-52
2023/08/03 10:33:51;;;;;;;0.90;0.40;;;;;;;25.19;100.00;103050.98;104464;1257;60584;-51
2023/08/03 10:36:33;;;;;;;0.30;0.30;;;;;;;25.24;100.00;103043.17;104815;1256;60001;-49
2023/08/03 10:39:13;;;;;;;0.50;0.40;;;;;;;25.30;100.00;103064.68;105230;1253;72358;-51
2023/08/03 10:41:45;;;;;;;1.10;0.30;;;;;;;25.38;100.00;103064.77;105343;1258;66733;-50
2023/08/03 10:44:13;;;;;;;0.30;0.30;;;;;;;25.44;100.00;103050.65;106653;1253;73103;-51
2023/08/03 10:46:45;;;;;;;0.40;0.40;;;;;;;25.43;100.00;103039.13;104938;1253;60507;-51
2023/08/03 10:49:25;;;;;;;0.40;0.40;;;;;;;25.33;100.00;103036.21;104959;1258;59995;-50
2023/08/03 10:52:22;;;;;;;0.40;0.40;;;;;;;25.26;100.00;103035.52;105006;1253;72970;-50
2023/08/03 10:54:50;;;;;;;0.40;0.40;;;;;;;25.26;100.00;103059.05;105343;1253;67452;-51
2023/08/03 10:57:18;;;;;;;0.20;0.20;;;;;;;25.29;100.00;102986.84;104699;1253;72416;-51
2023/08/03 10:59:47;;;;;;;0.30;0.30;;;;;;;25.31;100.00;102974.80;104751;1253;59729;-50
2023/08/03 11:02:25;;;;;;;0.70;0.30;;;;;;;25.33;100.00;102966.56;104965;1256;59711;-51
2023/08/03 11:04:53;;;;;;;1.50;0.20;;;;;;;25.41;100.00;102985.38;106196;1253;71832;-51
2023/08/03 11:07:32;;;;;;;0.40;0.40;;;;;;;25.51;100.00;102973.90;104769;1258;66884;-51
2023/08/03 11:10:01;;;;;;;1.80;0.30;;;;;;;25.62;100.00;102999.01;105816;1256;71385;-51
2023/08/03 11:12:28;;;;;;;0.40;0.30;;;;;;;25.71;100.00;102984.90;105402;1255;59743;-51
2023/08/03 11:14:56;;;;;;;0.20;0.20;;;;;;;25.76;100.00;102986.24;104834;1253;59970;-51
2023/08/03 11:17:28;;;;;;;0.20;0.20;;;;;;;25.78;100.00;102984.02;104902;1253;74936;-51
2023/08/03 11:19:56;;;;;;;0.30;0.30;;;;;;;25.80;100.00;102990.17;104725;1253;65536;-50